Time;durP1;ratioP1;P1;durP2;ratioP2;P2;SDS_P1;SDS_P2;PMS_P1;PMS_P2;Temp;Humidity;BMP_temperature;BMP_pressure;BME280_temperature;BME280_humidity;BME280_pressure;Samples;Min_cycle;Max_cycle;Signal;HPM_P1;HPM_P2
2023/06/05 00:01:52;;;;;;;4.70;3.10;;;;;;;13.00;45.53;98389.32;107008;1277;22788;-81
2023/06/05 00:04:20;;;;;;;5.90;3.20;;;;;;;12.90;45.87;98388.59;107085;1277;22765;-81
2023/06/05 00:06:50;;;;;;;4.70;2.90;;;;;;;12.82;46.04;98385.02;106953;1256;22522;-82
2023/06/05 00:09:18;;;;;;;8.80;3.40;;;;;;;12.73;46.14;98385.30;106939;1277;24193;-81
2023/06/05 00:11:46;;;;;;;8.40;3.10;;;;;;;12.67;46.58;98383.11;107338;1277;22522;-81
2023/06/05 00:14:14;;;;;;;8.30;3.20;;;;;;;12.64;47.48;98384.99;107383;1277;25484;-82
2023/06/05 00:16:42;;;;;;;4.60;3.20;;;;;;;12.60;47.31;98384.20;107070;1277;25386;-81
2023/06/05 00:19:11;;;;;;;4.90;3.20;;;;;;;12.56;47.37;98381.73;107045;1277;23251;-82
2023/06/05 00:21:39;;;;;;;5.00;2.90;;;;;;;12.51;47.50;98384.44;107020;1277;22540;-81
2023/06/05 00:24:07;;;;;;;17.90;3.40;;;;;;;12.49;47.82;98383.48;107002;1277;22595;-81
2023/06/05 00:26:35;;;;;;;4.40;3.10;;;;;;;12.46;47.74;98380.91;106929;1277;22573;-82
2023/06/05 00:29:03;;;;;;;6.50;3.00;;;;;;;12.45;47.83;98381.95;106900;1277;22676;-82
2023/06/05 00:31:33;;;;;;;4.70;2.80;;;;;;;12.45;48.05;98382.05;106919;1277;25616;-82
2023/06/05 00:34:01;;;;;;;7.40;3.60;;;;;;;12.43;48.16;98376.89;106878;1277;23138;-82
2023/06/05 00:36:29;;;;;;;12.30;4.00;;;;;;;12.42;48.83;98377.47;106978;1277;22524;-81
2023/06/05 00:38:57;;;;;;;5.20;3.50;;;;;;;12.41;48.57;98373.45;106870;1277;24250;-81
2023/06/05 00:41:26;;;;;;;7.10;3.20;;;;;;;12.39;49.10;98374.02;106890;1277;25312;-82
2023/06/05 00:43:54;;;;;;;5.20;3.30;;;;;;;12.34;49.47;98374.16;106782;1277;25536;-81
2023/06/05 00:46:22;;;;;;;8.50;3.40;;;;;;;12.31;49.67;98374.91;106758;1278;25557;-82
2023/06/05 00:48:50;;;;;;;7.80;3.50;;;;;;;12.29;50.15;98376.03;106923;1277;22571;-83
2023/06/05 00:51:20;;;;;;;6.10;3.50;;;;;;;12.27;50.01;98373.62;106741;1277;22572;-82
2023/06/05 00:53:48;;;;;;;6.00;3.40;;;;;;;12.26;50.69;98375.27;107006;1277;24467;-81
2023/06/05 00:56:20;;;;;;;6.40;3.50;;;;;;;12.24;50.73;98369.48;107037;1277;22950;-81
2023/06/05 00:58:49;;;;;;;7.20;3.30;;;;;;;12.23;51.10;98376.07;107115;1266;22602;-83
2023/06/05 01:01:17;;;;;;;4.20;3.00;;;;;;;12.22;50.65;98377.80;107044;1265;25319;-82
2023/06/05 01:03:47;;;;;;;5.60;3.50;;;;;;;12.23;50.84;98380.52;106861;1277;25051;-82
2023/06/05 01:06:16;;;;;;;6.50;3.40;;;;;;;12.23;50.92;98373.91;106810;1277;22519;-82
2023/06/05 01:08:45;;;;;;;5.40;3.50;;;;;;;12.24;51.28;98371.35;106852;1277;24192;-82
2023/06/05 01:11:19;;;;;;;4.70;3.70;;;;;;;12.24;51.48;98369.15;106817;1277;22986;-82
2023/06/05 01:14:09;;;;;;;6.20;3.50;;;;;;;12.22;51.88;98373.52;106866;1277;22523;-82
2023/06/05 01:16:38;;;;;;;5.30;3.70;;;;;;;12.17;51.84;98370.95;106951;1277;24809;-82
2023/06/05 01:19:14;;;;;;;5.70;3.30;;;;;;;12.15;51.79;98364.88;106969;1277;22540;-82
2023/06/05 01:21:42;;;;;;;8.00;3.30;;;;;;;12.13;52.16;98367.92;106873;1277;22559;-83
2023/06/05 01:24:13;;;;;;;4.20;3.40;;;;;;;12.12;52.25;98364.55;106915;1277;25348;-81
2023/06/05 01:27:12;;;;;;;4.90;3.50;;;;;;;12.09;52.31;98362.45;106922;1277;22631;-82
2023/06/05 01:30:02;;;;;;;5.90;3.40;;;;;;;12.05;52.38;98359.54;106910;1277;25392;-82
2023/06/05 01:32:53;;;;;;;5.40;3.10;;;;;;;12.01;52.64;98356.90;106986;1277;24205;-82
2023/06/05 01:35:32;;;;;;;7.00;3.40;;;;;;;11.98;53.26;98359.02;107154;1271;22633;-82
2023/06/05 01:38:05;;;;;;;7.30;4.20;;;;;;;11.94;53.44;98359.40;107097;1277;22988;-81
2023/06/05 01:40:35;;;;;;;6.20;3.40;;;;;;;11.93;53.36;98357.48;107070;1264;22788;-82
2023/06/05 01:43:05;;;;;;;7.50;3.60;;;;;;;11.90;53.56;98358.08;107111;1278;22985;-81
2023/06/05 01:45:37;;;;;;;4.70;3.30;;;;;;;11.88;53.71;98358.73;107087;1277;22520;-81
2023/06/05 01:48:10;;;;;;;7.90;3.80;;;;;;;11.88;53.64;98358.16;107091;1277;22511;-82
2023/06/05 01:50:41;;;;;;;5.50;3.70;;;;;;;11.87;53.94;98354.98;106996;1278;25264;-82
2023/06/05 01:53:12;;;;;;;4.90;3.70;;;;;;;11.88;53.87;98354.80;107023;1277;24287;-81
2023/06/05 01:55:41;;;;;;;4.30;3.70;;;;;;;11.91;54.37;98351.09;106946;1277;22653;-83
2023/06/05 01:58:10;;;;;;;8.00;3.70;;;;;;;11.93;54.32;98350.30;106847;1277;22634;-81
2023/06/05 02:00:38;;;;;;;5.00;3.70;;;;;;;11.96;54.93;98350.57;106802;1278;24279;-83
2023/06/05 02:03:07;;;;;;;8.40;3.50;;;;;;;12.00;54.55;98349.09;107026;1277;23925;-83
2023/06/05 02:05:36;;;;;;;7.60;3.60;;;;;;;12.02;54.23;98345.98;107112;1277;22655;-83
2023/06/05 02:08:05;;;;;;;6.30;3.90;;;;;;;12.00;54.10;98343.70;107195;1277;22606;-83
2023/06/05 02:10:34;;;;;;;4.60;3.40;;;;;;;11.99;54.18;98342.78;107098;1267;22647;-80
2023/06/05 02:13:03;;;;;;;5.30;3.70;;;;;;;12.00;54.17;98343.64;106992;1277;22542;-84
2023/06/05 02:15:33;;;;;;;4.80;3.40;;;;;;;12.04;54.56;98342.27;106999;1277;22575;-82
2023/06/05 02:18:04;;;;;;;8.40;3.90;;;;;;;12.12;54.27;98345.38;107044;1277;26780;-82
2023/06/05 02:20:32;;;;;;;6.50;3.70;;;;;;;12.12;54.56;98347.38;107045;1278;23920;-82
2023/06/05 02:23:01;;;;;;;10.30;4.20;;;;;;;12.08;55.22;98348.73;106821;1274;25265;-81
2023/06/05 02:25:29;;;;;;;15.30;4.10;;;;;;;12.02;55.15;98351.60;107025;1277;22618;-82
2023/06/05 02:28:24;;;;;;;12.20;4.30;;;;;;;11.97;54.86;98349.69;106995;1278;24317;-82
2023/06/05 02:30:53;;;;;;;6.90;3.80;;;;;;;11.95;54.85;98350.65;107003;1277;24256;-82
2023/06/05 02:33:23;;;;;;;5.40;3.40;;;;;;;11.93;54.83;98349.00;106983;1278;23568;-81
2023/06/05 02:35:51;;;;;;;5.70;3.60;;;;;;;11.92;55.31;98350.86;106929;1277;22724;-80
2023/06/05 02:38:20;;;;;;;6.50;4.10;;;;;;;11.90;55.26;98349.53;106750;1277;22611;-80
2023/06/05 02:40:48;;;;;;;7.40;3.20;;;;;;;11.90;55.17;98350.45;106859;1277;22580;-80
2023/06/05 02:43:17;;;;;;;4.40;3.50;;;;;;;11.89;55.16;98352.14;106755;1277;24351;-80
2023/06/05 02:45:45;;;;;;;6.70;3.30;;;;;;;11.88;55.26;98347.09;106589;1277;22997;-80
2023/06/05 02:48:13;;;;;;;6.10;3.80;;;;;;;11.88;55.54;98347.46;106789;1277;22630;-80
2023/06/05 02:50:41;;;;;;;5.80;3.40;;;;;;;11.90;55.57;98348.30;106742;1277;22649;-80
2023/06/05 02:53:10;;;;;;;4.90;3.30;;;;;;;11.95;55.46;98345.50;106655;1277;22633;-79
2023/06/05 02:55:40;;;;;;;5.70;3.50;;;;;;;11.99;55.61;98347.65;106607;1277;22574;-79
2023/06/05 02:58:12;;;;;;;8.60;3.70;;;;;;;12.06;55.69;98349.66;106522;1277;22729;-76
2023/06/05 03:00:46;;;;;;;5.60;3.40;;;;;;;12.10;55.59;98349.74;106671;1277;22563;-76
2023/06/05 03:03:16;;;;;;;5.00;3.80;;;;;;;12.13;55.43;98352.45;106833;1277;24011;-77
2023/06/05 03:05:46;;;;;;;9.40;3.60;;;;;;;12.12;55.40;98354.08;106738;1278;22571;-79
2023/06/05 03:08:16;;;;;;;7.00;4.60;;;;;;;12.11;55.58;98356.20;106992;1277;22630;-78
2023/06/05 03:10:46;;;;;;;12.50;11.20;;;;;;;12.12;56.21;98354.29;106952;1277;24373;-76
2023/06/05 03:13:14;;;;;;;10.00;8.90;;;;;;;11.99;56.23;98354.52;106673;1277;22620;-76
2023/06/05 03:15:42;;;;;;;9.80;7.30;;;;;;;11.83;56.47;98354.07;106572;1276;22595;-76
2023/06/05 03:18:13;;;;;;;8.70;5.60;;;;;;;11.66;56.69;98352.92;106767;1277;22532;-76
2023/06/05 03:20:42;;;;;;;6.60;4.90;;;;;;;11.47;57.23;98356.95;106751;1277;22629;-80
2023/06/05 03:23:12;;;;;;;10.50;5.10;;;;;;;11.28;56.80;98353.05;106918;1277;23925;-81
2023/06/05 03:25:40;;;;;;;9.00;5.50;;;;;;;11.21;56.75;98352.27;106829;1277;25576;-80
2023/06/05 03:28:08;;;;;;;8.70;5.00;;;;;;;11.17;56.75;98350.80;106900;1277;22987;-80
2023/06/05 03:30:36;;;;;;;7.70;5.00;;;;;;;11.14;57.64;98354.66;106967;1277;24242;-81
2023/06/05 03:33:06;;;;;;;8.80;5.90;;;;;;;11.21;57.58;98354.29;106984;1277;22559;-81
2023/06/05 03:35:34;;;;;;;6.30;4.40;;;;;;;11.29;57.53;98355.69;106887;1277;25242;-82
2023/06/05 03:38:05;;;;;;;6.50;4.60;;;;;;;11.35;57.43;98353.23;106987;1277;22537;-81
2023/06/05 03:40:33;;;;;;;4.80;4.00;;;;;;;11.43;57.74;98350.63;107008;1277;25217;-80
2023/06/05 03:43:01;;;;;;;6.60;4.20;;;;;;;11.53;57.79;98346.98;106975;1277;25259;-81
2023/06/05 03:45:33;;;;;;;9.00;4.30;;;;;;;11.62;57.70;98346.45;107006;1277;22521;-81
2023/06/05 03:48:03;;;;;;;5.20;4.20;;;;;;;11.73;57.76;98350.27;106960;1277;22530;-81
2023/06/05 03:50:37;;;;;;;5.00;4.00;;;;;;;11.83;57.73;98349.80;106929;1277;22524;-80
2023/06/05 03:53:05;;;;;;;5.90;4.00;;;;;;;11.95;57.69;98351.17;106971;1273;25337;-81
2023/06/05 03:55:45;;;;;;;9.40;5.10;;;;;;;12.07;58.07;98348.81;106910;1277;25309;-81
2023/06/05 03:58:20;;;;;;;6.30;4.30;;;;;;;12.22;58.16;98349.73;106864;1277;22644;-83
2023/06/05 04:00:50;;;;;;;9.50;4.80;;;;;;;12.34;58.30;98351.14;106938;1277;25452;-82
2023/06/05 04:03:20;;;;;;;7.10;4.50;;;;;;;12.46;58.56;98356.30;106858;1277;24254;-83
2023/06/05 04:05:51;;;;;;;8.90;4.60;;;;;;;12.58;58.47;98355.48;107205;1254;24237;-83
2023/06/05 04:08:20;;;;;;;10.50;5.60;;;;;;;12.69;58.33;98358.78;107193;1277;22569;-83
2023/06/05 04:10:48;;;;;;;5.80;4.30;;;;;;;12.77;58.22;98356.89;106903;1277;22630;-81
2023/06/05 04:13:17;;;;;;;8.10;4.50;;;;;;;12.83;58.03;98356.83;107039;1277;22556;-83
2023/06/05 04:15:46;;;;;;;7.60;4.30;;;;;;;12.88;58.21;98354.90;107007;1265;24465;-82
2023/06/05 04:18:15;;;;;;;7.50;4.80;;;;;;;12.93;58.23;98353.17;106994;1277;22552;-82
2023/06/05 04:20:43;;;;;;;9.20;5.70;;;;;;;13.00;58.37;98354.52;106931;1277;25345;-82
2023/06/05 04:23:11;;;;;;;8.00;5.30;;;;;;;13.12;58.24;98358.87;107083;1277;23258;-82
2023/06/05 04:25:45;;;;;;;8.30;5.10;;;;;;;13.24;58.16;98355.09;107041;1277;22526;-81
2023/06/05 04:28:15;;;;;;;12.10;5.30;;;;;;;13.35;58.25;98352.70;107026;1259;25217;-82
2023/06/05 04:30:45;;;;;;;7.70;4.50;;;;;;;13.47;58.20;98352.71;107132;1277;22643;-82
2023/06/05 04:33:15;;;;;;;5.50;4.20;;;;;;;13.58;58.27;98352.66;107031;1277;25495;-81
2023/06/05 04:35:43;;;;;;;7.60;3.80;;;;;;;13.68;58.24;98354.90;106913;1277;22563;-81
2023/06/05 04:38:11;;;;;;;7.10;3.90;;;;;;;13.79;58.12;98355.30;106925;1277;22523;-81
2023/06/05 04:40:43;;;;;;;7.70;4.00;;;;;;;13.89;58.19;98356.04;107014;1277;22557;-81
2023/06/05 04:43:11;;;;;;;9.50;3.70;;;;;;;14.00;58.20;98354.19;107051;1277;22538;-81
2023/06/05 04:45:41;;;;;;;7.80;3.80;;;;;;;14.14;58.15;98355.80;106835;1277;22579;-81
2023/06/05 04:48:10;;;;;;;9.10;3.90;;;;;;;14.24;58.24;98352.86;106925;1266;22525;-81
2023/06/05 04:50:38;;;;;;;7.00;4.10;;;;;;;14.34;57.99;98349.08;106974;1277;22535;-81
2023/06/05 04:53:11;;;;;;;12.40;4.40;;;;;;;14.45;58.31;98351.70;106926;1277;25319;-80
2023/06/05 04:55:40;;;;;;;8.20;3.80;;;;;;;14.55;58.19;98351.04;106950;1277;25315;-81
2023/06/05 04:58:08;;;;;;;10.40;4.70;;;;;;;14.67;58.09;98347.83;106861;1275;22512;-82
2023/06/05 05:00:36;;;;;;;8.20;4.30;;;;;;;14.79;57.85;98353.20;106795;1277;24047;-81
2023/06/05 05:03:05;;;;;;;10.30;3.90;;;;;;;14.91;57.69;98353.80;106878;1277;22585;-81
2023/06/05 05:05:35;;;;;;;7.50;3.60;;;;;;;15.04;57.65;98351.52;106823;1277;24266;-81
2023/06/05 05:08:05;;;;;;;12.10;4.20;;;;;;;15.17;57.57;98352.19;106953;1277;22569;-81
2023/06/05 05:10:33;;;;;;;10.30;3.70;;;;;;;15.29;57.58;98349.55;107019;1277;24199;-82
2023/06/05 05:13:01;;;;;;;7.40;3.80;;;;;;;15.40;57.53;98348.05;107054;1277;22529;-81
2023/06/05 05:15:31;;;;;;;5.60;3.60;;;;;;;15.53;57.42;98347.06;106980;1277;22534;-82
2023/06/05 05:18:03;;;;;;;5.30;3.60;;;;;;;15.64;57.23;98350.45;107016;1277;22653;-82
2023/06/05 05:20:34;;;;;;;7.40;3.90;;;;;;;15.77;57.20;98352.84;106858;1277;22606;-83
2023/06/05 05:23:07;;;;;;;7.80;3.60;;;;;;;15.92;57.03;98354.15;107041;1275;22549;-83
2023/06/05 05:25:37;;;;;;;8.40;4.30;;;;;;;16.07;56.85;98356.13;107047;1277;24126;-82
2023/06/05 05:28:06;;;;;;;9.20;3.90;;;;;;;16.23;56.77;98349.46;106837;1277;24217;-81
2023/06/05 05:30:35;;;;;;;7.30;3.70;;;;;;;16.35;56.59;98351.32;106766;1277;23036;-82
2023/06/05 05:33:03;;;;;;;13.00;4.40;;;;;;;16.50;56.68;98356.60;106938;1277;22547;-86
2023/06/05 05:35:32;;;;;;;9.50;4.00;;;;;;;16.65;56.37;98354.70;106883;1277;22549;-82
2023/06/05 05:38:01;;;;;;;10.20;3.90;;;;;;;16.78;56.18;98355.41;106858;1277;22511;-83
2023/06/05 05:40:29;;;;;;;7.60;3.00;;;;;;;16.89;56.01;98354.43;106841;1277;23935;-80
2023/06/05 05:42:57;;;;;;;7.30;3.50;;;;;;;17.04;55.75;98357.45;106894;1277;25393;-85
2023/06/05 05:45:25;;;;;;;6.00;4.00;;;;;;;17.25;55.64;98354.10;106817;1277;25446;-85
2023/06/05 05:47:53;;;;;;;11.10;3.60;;;;;;;17.47;55.16;98354.70;106936;1277;22829;-83
2023/06/05 05:50:21;;;;;;;7.80;3.90;;;;;;;17.67;54.96;98349.84;106945;1277;22588;-84
2023/06/05 05:52:51;;;;;;;6.80;3.60;;;;;;;17.87;54.57;98352.12;106706;1277;225203;-81
2023/06/05 05:55:20;;;;;;;7.50;3.60;;;;;;;18.01;54.17;98354.71;106959;1277;22565;-78
2023/06/05 05:57:48;;;;;;;7.80;3.40;;;;;;;18.15;54.06;98357.86;106795;1277;22527;-80
2023/06/05 06:00:16;;;;;;;7.10;3.80;;;;;;;18.36;53.83;98359.55;106827;1277;25369;-76
2023/06/05 06:02:45;;;;;;;18.40;4.50;;;;;;;18.43;53.68;98360.26;106726;1277;22557;-77
2023/06/05 06:05:13;;;;;;;7.60;4.00;;;;;;;18.45;53.48;98363.84;107529;1277;22481;-76
2023/06/05 06:07:42;;;;;;;7.80;4.20;;;;;;;18.47;53.42;98357.90;106712;1277;22555;-77
2023/06/05 06:10:12;;;;;;;16.20;4.80;;;;;;;18.49;53.45;98363.90;107250;1277;22883;-76
2023/06/05 06:12:41;;;;;;;7.00;3.80;;;;;;;18.53;53.32;98367.22;107000;1277;23353;-76
2023/06/05 06:15:09;;;;;;;10.20;3.90;;;;;;;18.52;52.85;98371.09;106596;1277;25281;-74
2023/06/05 06:17:38;;;;;;;10.00;3.80;;;;;;;18.50;52.75;98369.25;106484;1277;24327;-75
2023/06/05 06:20:08;;;;;;;8.90;4.20;;;;;;;18.58;52.75;98371.70;106609;1277;23904;-75
2023/06/05 06:22:36;;;;;;;7.90;4.20;;;;;;;18.64;52.66;98373.52;106602;1277;25412;-75
2023/06/05 06:25:05;;;;;;;10.10;3.90;;;;;;;18.70;52.48;98371.90;106652;1277;22559;-75
2023/06/05 06:27:33;;;;;;;12.40;4.30;;;;;;;18.80;52.41;98380.92;106614;1277;22643;-75
2023/06/05 06:30:04;;;;;;;10.40;3.90;;;;;;;18.89;52.27;98378.81;106637;1277;23148;-75
2023/06/05 06:32:32;;;;;;;11.80;4.20;;;;;;;18.97;51.94;98375.94;106702;1277;22568;-75
2023/06/05 06:35:00;;;;;;;5.30;3.40;;;;;;;19.06;51.85;98377.21;106635;1277;22643;-75
2023/06/05 06:37:28;;;;;;;10.40;4.30;;;;;;;19.14;51.55;98373.39;106691;1277;22542;-76
2023/06/05 06:39:56;;;;;;;12.10;4.20;;;;;;;19.19;51.18;98375.83;106643;1277;22523;-76
2023/06/05 06:42:24;;;;;;;11.50;3.90;;;;;;;19.25;50.83;98374.67;106642;1277;24048;-77
2023/06/05 06:45:07;;;;;;;9.70;4.20;;;;;;;19.27;50.32;98371.01;106596;1271;22524;-76
2023/06/05 06:47:35;;;;;;;10.40;3.80;;;;;;;19.33;50.22;98373.52;106715;1277;22557;-76
2023/06/05 06:50:04;;;;;;;13.30;3.80;;;;;;;19.40;49.98;98373.31;106583;1277;22539;-76
2023/06/05 06:52:32;;;;;;;9.70;4.40;;;;;;;19.52;49.60;98369.93;106606;1277;22617;-77
2023/06/05 06:55:01;;;;;;;11.10;4.40;;;;;;;19.62;49.58;98369.98;106803;1277;24407;-77
2023/06/05 06:57:28;;;;;;;10.10;3.80;;;;;;;19.71;48.92;98368.71;106897;1277;22534;-77
2023/06/05 06:59:57;;;;;;;10.40;3.70;;;;;;;19.81;49.05;98368.29;106874;1277;22603;-77
2023/06/05 07:02:25;;;;;;;7.70;3.50;;;;;;;19.91;48.74;98368.08;106918;1277;22627;-76
2023/06/05 07:04:54;;;;;;;9.60;4.00;;;;;;;20.02;48.61;98366.91;106636;1277;22530;-75
2023/06/05 07:07:23;;;;;;;7.90;3.90;;;;;;;20.16;48.41;98371.48;106861;1266;22813;-76
2023/06/05 07:09:52;;;;;;;6.70;3.70;;;;;;;20.23;47.71;98372.86;106652;1272;25449;-75
2023/06/05 07:12:22;;;;;;;9.00;3.60;;;;;;;20.29;47.74;98371.30;107134;1277;23199;-76
2023/06/05 07:14:51;;;;;;;11.90;4.00;;;;;;;20.39;47.58;98373.42;106872;1277;22541;-76
2023/06/05 07:17:19;;;;;;;5.50;3.50;;;;;;;20.49;46.85;98377.48;106667;1277;25390;-76
2023/06/05 07:19:47;;;;;;;8.10;3.40;;;;;;;20.47;46.08;98378.17;106728;1277;26507;-76
2023/06/05 07:22:15;;;;;;;15.80;4.10;;;;;;;20.52;46.52;98373.13;106701;1277;22524;-76
2023/06/05 07:24:43;;;;;;;8.20;3.90;;;;;;;20.62;46.19;98375.36;106808;1277;24354;-77
2023/06/05 07:27:11;;;;;;;13.30;4.20;;;;;;;20.71;45.60;98378.71;106894;1272;24075;-78
2023/06/05 07:29:40;;;;;;;7.90;3.60;;;;;;;20.72;44.53;98378.28;106996;1272;22549;-78
2023/06/05 07:32:08;;;;;;;7.20;3.80;;;;;;;20.72;44.63;98381.00;107067;1277;22647;-76
2023/06/05 07:34:36;;;;;;;7.50;3.70;;;;;;;20.73;44.06;98382.89;106784;1277;23896;-77
2023/06/05 07:37:04;;;;;;;9.60;4.10;;;;;;;20.75;44.29;98382.64;106623;1272;22527;-79
2023/06/05 07:39:32;;;;;;;6.40;3.80;;;;;;;20.81;44.30;98377.40;107091;1277;25423;-76
2023/06/05 07:42:00;;;;;;;6.30;3.70;;;;;;;20.94;44.00;98379.65;107001;1277;22516;-77
2023/06/05 07:44:28;;;;;;;8.10;3.30;;;;;;;21.00;43.08;98376.42;106971;1278;24188;-76
2023/06/05 07:46:56;;;;;;;6.10;3.40;;;;;;;21.00;42.72;98379.33;107041;1278;22583;-76
2023/06/05 07:49:24;;;;;;;10.40;4.00;;;;;;;21.08;43.00;98380.05;106928;1278;28051;-75
2023/06/05 07:51:52;;;;;;;9.10;3.50;;;;;;;21.15;42.25;98382.25;106951;1278;22592;-77
2023/06/05 07:54:21;;;;;;;15.30;3.70;;;;;;;21.20;41.96;98381.42;107030;1277;25569;-78
2023/06/05 07:56:50;;;;;;;6.40;3.40;;;;;;;21.24;42.00;98376.13;106485;1277;22530;-76
2023/06/05 07:59:24;;;;;;;8.00;3.30;;;;;;;21.38;42.55;98372.36;106747;1277;22592;-76
2023/06/05 08:01:55;;;;;;;9.60;4.10;;;;;;;21.52;41.80;98376.92;107756;1262;22718;-76
2023/06/05 08:04:27;;;;;;;9.70;3.70;;;;;;;21.65;41.79;98376.79;106777;1271;25016;-75
2023/06/05 08:06:56;;;;;;;9.80;3.40;;;;;;;21.79;41.59;98374.79;106786;1277;24051;-76
2023/06/05 08:09:24;;;;;;;8.20;3.20;;;;;;;21.92;40.59;98369.96;106780;1277;22542;-75
2023/06/05 08:11:52;;;;;;;8.60;3.20;;;;;;;21.94;39.80;98373.67;106734;1277;26631;-76
2023/06/05 08:14:20;;;;;;;13.90;3.50;;;;;;;21.97;40.08;98372.96;106818;1277;22533;-75
2023/06/05 08:16:48;;;;;;;6.10;3.00;;;;;;;22.02;38.72;98367.39;106719;1277;22669;-78
2023/06/05 08:19:16;;;;;;;8.10;3.30;;;;;;;21.98;38.53;98367.79;106781;1277;22827;-78
2023/06/05 08:21:44;;;;;;;6.80;3.00;;;;;;;22.01;38.73;98369.83;107270;1277;23464;-77
2023/06/05 08:24:12;;;;;;;8.10;3.50;;;;;;;22.11;38.05;98372.65;107218;1277;22530;-77
2023/06/05 08:26:40;;;;;;;6.90;3.10;;;;;;;22.14;37.46;98370.54;107300;1277;22544;-76
2023/06/05 08:29:08;;;;;;;11.50;3.40;;;;;;;22.20;37.15;98364.16;106743;1277;22828;-79
2023/06/05 08:31:37;;;;;;;4.50;3.00;;;;;;;22.28;36.91;98362.25;107289;1277;25347;-78
2023/06/05 08:34:05;;;;;;;6.10;2.90;;;;;;;22.32;36.79;98359.50;107289;1261;22671;-78
2023/06/05 08:36:35;;;;;;;9.20;4.20;;;;;;;22.36;36.31;98361.05;107412;1273;22644;-78
2023/06/05 08:39:04;;;;;;;8.90;3.50;;;;;;;22.37;36.43;98358.89;106841;1277;22644;-78
2023/06/05 08:41:35;;;;;;;12.30;3.30;;;;;;;22.43;36.01;98368.17;107358;1271;22533;-79
2023/06/05 08:44:03;;;;;;;12.20;3.50;;;;;;;22.48;36.60;98366.69;107135;1277;22563;-80
2023/06/05 08:46:36;;;;;;;14.10;3.10;;;;;;;22.62;36.69;98366.55;106784;1277;22586;-79
2023/06/05 08:49:10;;;;;;;8.00;3.10;;;;;;;22.79;36.78;98369.95;106796;1277;23381;-75
2023/06/05 08:51:40;;;;;;;9.20;3.00;;;;;;;22.96;36.42;98369.45;106870;1277;22745;-74
2023/06/05 08:54:12;;;;;;;13.40;4.00;;;;;;;23.09;36.04;98369.58;106687;1262;24262;-77
2023/06/05 08:56:43;;;;;;;9.90;3.60;;;;;;;23.19;35.72;98369.02;107149;1272;22514;-78
2023/06/05 08:59:14;;;;;;;7.70;3.40;;;;;;;23.29;35.38;98368.91;107184;1278;23387;-77
2023/06/05 09:01:47;;;;;;;7.10;3.00;;;;;;;23.38;35.27;98367.70;106807;1278;22643;-74
2023/06/05 09:04:15;;;;;;;7.30;3.30;;;;;;;23.45;35.30;98367.73;106825;1278;22569;-76
2023/06/05 09:06:48;;;;;;;6.60;3.00;;;;;;;23.56;34.85;98366.53;106686;1278;25252;-77
2023/06/05 09:09:16;;;;;;;6.60;2.80;;;;;;;23.65;35.10;98365.23;107207;1278;22544;-76
2023/06/05 09:11:44;;;;;;;7.40;3.30;;;;;;;23.74;34.70;98360.10;106715;1278;22538;-75
2023/06/05 09:14:12;;;;;;;8.70;3.30;;;;;;;23.77;34.87;98362.73;106672;1278;25442;-76
2023/06/05 09:16:43;;;;;;;9.60;4.80;;;;;;;23.89;34.36;98359.16;106686;1269;23148;-75
2023/06/05 09:19:12;;;;;;;8.70;3.10;;;;;;;23.96;33.83;98363.98;106879;1277;22516;-76
2023/06/05 09:21:52;;;;;;;5.50;3.00;;;;;;;23.97;34.23;98358.16;107355;1277;24185;-77
2023/06/05 09:24:23;;;;;;;5.50;2.90;;;;;;;23.99;34.40;98362.28;106682;1277;22525;-76
2023/06/05 09:26:58;;;;;;;8.70;3.00;;;;;;;24.12;34.02;98358.08;106918;1277;25469;-75
2023/06/05 09:29:27;;;;;;;8.40;3.00;;;;;;;24.20;33.43;98363.66;106804;1277;22521;-75
2023/06/05 09:32:00;;;;;;;6.70;3.00;;;;;;;24.29;33.25;98367.30;106798;1277;22538;-76
2023/06/05 09:34:35;;;;;;;7.50;2.90;;;;;;;24.40;33.42;98363.10;107297;1277;25395;-76
2023/06/05 09:37:08;;;;;;;8.20;3.10;;;;;;;24.49;32.59;98358.63;106773;1277;22522;-75
2023/06/05 09:39:43;;;;;;;5.70;2.70;;;;;;;24.47;32.67;98356.16;107279;1277;24259;-76
2023/06/05 09:42:11;;;;;;;7.40;3.40;;;;;;;24.44;32.66;98360.78;106874;1277;26113;-76
2023/06/05 09:44:39;;;;;;;5.20;3.00;;;;;;;24.49;32.93;98353.59;106728;1277;22639;-75
2023/06/05 09:47:09;;;;;;;10.50;3.20;;;;;;;24.59;32.67;98355.65;106953;1277;22522;-77
2023/06/05 09:49:41;;;;;;;7.20;2.80;;;;;;;24.70;32.76;98358.09;107386;1277;22514;-74
2023/06/05 09:52:12;;;;;;;5.80;3.00;;;;;;;24.76;32.51;98356.80;106829;1277;22517;-75
2023/06/05 09:54:44;;;;;;;9.10;2.80;;;;;;;24.77;31.96;98350.98;106836;1277;22520;-76
2023/06/05 09:57:14;;;;;;;7.80;3.10;;;;;;;24.75;32.03;98350.97;107403;1277;22530;-78
2023/06/05 09:59:51;;;;;;;6.00;3.00;;;;;;;24.81;32.13;98345.42;107305;1277;22825;-77
2023/06/05 10:02:23;;;;;;;9.30;2.80;;;;;;;24.98;31.98;98346.73;107335;1277;22542;-76
2023/06/05 10:05:06;;;;;;;8.00;3.10;;;;;;;25.06;31.06;98346.21;106842;1277;25227;-75
2023/06/05 10:07:38;;;;;;;6.90;3.00;;;;;;;25.00;31.48;98342.79;106771;1278;23230;-74
2023/06/05 10:10:09;;;;;;;10.30;3.40;;;;;;;24.95;31.49;98340.23;106936;1277;22699;-75
2023/06/05 10:12:38;;;;;;;7.50;3.00;;;;;;;25.05;31.99;98335.73;106999;1278;22547;-74
2023/06/05 10:15:08;;;;;;;4.90;2.90;;;;;;;25.10;31.68;98331.05;106682;1278;24382;-75
2023/06/05 10:17:40;;;;;;;4.40;2.70;;;;;;;25.18;31.69;98332.54;106699;1278;23977;-75
2023/06/05 10:20:09;;;;;;;6.40;2.80;;;;;;;25.26;31.60;98328.73;106804;1278;22546;-78
2023/06/05 10:22:43;;;;;;;9.50;2.90;;;;;;;25.38;31.63;98330.12;107092;1278;24253;-75
2023/06/05 10:25:13;;;;;;;4.50;3.10;;;;;;;25.53;31.26;98321.20;106649;1278;22773;-75
2023/06/05 10:28:16;;;;;;;4.70;2.80;;;;;;;25.70;31.29;98323.54;106981;1278;22563;-76
2023/06/05 10:31:10;;;;;;;8.30;2.90;;;;;;;25.78;30.78;98322.31;106980;1272;23165;-75
2023/06/05 10:34:17;;;;;;;8.10;3.00;;;;;;;25.75;30.38;98322.46;106854;1277;22519;-77
2023/06/05 10:37:08;;;;;;;8.10;2.80;;;;;;;25.83;30.42;98318.40;107085;1278;23916;-78
2023/06/05 10:39:37;;;;;;;8.00;3.90;;;;;;;25.76;30.21;98317.41;107228;1278;22645;-77
2023/06/05 10:42:05;;;;;;;8.60;3.20;;;;;;;25.82;30.57;98318.71;107059;1272;22617;-77
2023/06/05 10:44:42;;;;;;;9.00;3.50;;;;;;;25.91;29.93;98319.30;107171;1278;24365;-78
2023/06/05 10:47:32;;;;;;;9.40;3.00;;;;;;;26.03;30.56;98319.82;107173;1278;25421;-76
2023/06/05 10:50:19;;;;;;;6.80;3.80;;;;;;;26.27;30.56;98312.66;107121;1278;25278;-77
2023/06/05 10:52:49;;;;;;;6.50;3.00;;;;;;;26.42;30.66;98312.42;107215;1278;24236;-73
2023/06/05 10:55:17;;;;;;;5.80;3.10;;;;;;;26.41;30.41;98316.46;106782;1278;22527;-75
2023/06/05 10:58:01;;;;;;;7.00;3.50;;;;;;;26.34;30.10;98314.71;106804;1271;22532;-75
2023/06/05 11:00:33;;;;;;;10.60;4.10;;;;;;;26.28;30.05;98309.02;106684;1270;24335;-74
2023/06/05 11:03:01;;;;;;;6.20;3.20;;;;;;;26.17;30.22;98307.52;106845;1277;25220;-77
2023/06/05 11:05:30;;;;;;;10.30;3.10;;;;;;;26.24;30.16;98307.85;106923;1277;22517;-76
2023/06/05 11:08:16;;;;;;;7.20;3.20;;;;;;;26.33;29.98;98312.35;106858;1277;24276;-76
2023/06/05 11:11:09;;;;;;;6.30;3.20;;;;;;;26.46;29.98;98305.26;106932;1277;22774;-75
2023/06/05 11:13:54;;;;;;;6.90;3.10;;;;;;;26.58;29.62;98305.36;106813;1277;22514;-75
2023/06/05 11:16:30;;;;;;;6.80;2.80;;;;;;;26.60;29.29;98303.61;106931;1277;22491;-77
2023/06/05 11:19:22;;;;;;;12.20;2.90;;;;;;;26.64;29.47;98306.05;107317;1277;22784;-79
2023/06/05 11:22:09;;;;;;;8.80;2.90;;;;;;;26.79;29.66;98307.46;107312;1277;22524;-78
2023/06/05 11:24:38;;;;;;;6.10;3.20;;;;;;;26.89;29.04;98311.16;107193;1277;22584;-80
2023/06/05 11:27:08;;;;;;;7.30;3.00;;;;;;;26.95;29.22;98308.95;107243;1277;24272;-78
2023/06/05 11:29:37;;;;;;;6.90;2.90;;;;;;;27.01;29.30;98311.38;107442;1277;22536;-80
2023/06/05 11:32:12;;;;;;;9.70;3.20;;;;;;;27.09;29.12;98310.96;107297;1277;22633;-79
2023/06/05 11:34:46;;;;;;;5.20;3.50;;;;;;;27.13;29.42;98305.58;107329;1277;22544;-78
2023/06/05 11:37:18;;;;;;;6.90;2.80;;;;;;;27.26;29.38;98302.18;107425;1277;25459;-78
2023/06/05 11:39:46;;;;;;;6.90;2.70;;;;;;;27.27;28.80;98299.80;107458;1267;22547;-78
2023/06/05 11:42:22;;;;;;;11.30;3.30;;;;;;;27.31;29.01;98299.31;107353;1277;22591;-78